createdAt,value
2017-08-18T00:02:02.263Z,99943.35
2017-08-18T00:04:29.869Z,99945.87
2017-08-18T00:06:57.473Z,99945.05
2017-08-18T00:09:25.351Z,99950.41
2017-08-18T00:11:52.967Z,99951.40
2017-08-18T00:14:20.574Z,99945.66
2017-08-18T00:16:48.248Z,99941.97
2017-08-18T00:19:15.871Z,99937.25
2017-08-18T00:21:43.495Z,99949.56
2017-08-18T00:24:11.162Z,99944.50
2017-08-18T00:26:38.776Z,99944.77
2017-08-18T00:29:06.390Z,99946.36
2017-08-18T00:31:34.052Z,99945.33
2017-08-18T00:34:01.666Z,99943.20
2017-08-18T00:36:29.297Z,99937.35
2017-08-18T00:38:56.970Z,99944.88
2017-08-18T00:41:24.592Z,99949.25
2017-08-18T00:43:52.216Z,99950.55
2017-08-18T00:46:19.912Z,99952.92
2017-08-18T00:48:47.531Z,99944.31
2017-08-18T00:51:15.413Z,99952.52
2017-08-18T00:53:43.529Z,99948.58
2017-08-18T00:56:11.418Z,99952.47
2017-08-18T00:58:39.263Z,99951.19
2017-08-18T01:01:06.949Z,99948.53
2017-08-18T01:03:34.674Z,99949.22
2017-08-18T01:06:02.638Z,99951.34
2017-08-18T01:08:30.317Z,99950.75
2017-08-18T01:10:57.958Z,99948.63
2017-08-18T01:13:25.575Z,99953.91
2017-08-18T01:15:53.251Z,99947.14
2017-08-18T01:18:20.863Z,99944.28
2017-08-18T01:20:48.481Z,99945.23
2017-08-18T01:23:16.145Z,99938.45
2017-08-18T01:25:43.774Z,99942.88
2017-08-18T01:28:11.398Z,99940.94
2017-08-18T01:30:39.067Z,99944.05
2017-08-18T01:33:06.676Z,99943.33
2017-08-18T01:35:34.293Z,99948.84
2017-08-18T01:38:01.977Z,99947.75
2017-08-18T01:40:29.598Z,99940.69
2017-08-18T01:42:57.207Z,99945.17
2017-08-18T01:45:24.891Z,99947.06
2017-08-18T01:47:52.527Z,99947.11
2017-08-18T01:50:20.142Z,99952.48
2017-08-18T01:52:47.964Z,99943.06
2017-08-18T01:55:15.904Z,99946.25
2017-08-18T01:57:43.584Z,99948.77
2017-08-18T02:00:11.261Z,99952.88
2017-08-18T02:02:38.870Z,99954.72
2017-08-18T02:05:06.474Z,99947.20
2017-08-18T02:07:34.137Z,99949.57
2017-08-18T02:10:01.737Z,99954.79
2017-08-18T02:12:29.368Z,99952.81
2017-08-18T02:14:57.047Z,99951.21
2017-08-18T02:17:24.666Z,99957.84
2017-08-18T02:20:19.593Z,99941.39
2017-08-18T02:22:47.189Z,99963.45
2017-08-18T02:25:14.831Z,99959.55
2017-08-18T02:27:42.532Z,99970.03
2017-08-18T02:30:10.151Z,99972.46
2017-08-18T02:32:37.778Z,99977.36
2017-08-18T02:35:05.450Z,99974.11
2017-08-18T02:37:33.082Z,99977.43
2017-08-18T02:40:00.714Z,99977.20
2017-08-18T02:42:28.400Z,99979.89
2017-08-18T02:44:56.024Z,99983.55
2017-08-18T02:47:23.631Z,99984.77
2017-08-18T02:49:51.298Z,99990.37
2017-08-18T02:52:18.923Z,99994.28
2017-08-18T02:54:46.545Z,99988.59
2017-08-18T02:57:14.237Z,99992.53
2017-08-18T02:59:41.891Z,99987.11
2017-08-18T03:02:09.517Z,99990.77
2017-08-18T03:04:37.198Z,99992.92
2017-08-18T03:07:04.812Z,99997.77
2017-08-18T03:09:32.441Z,100000.70
2017-08-18T03:12:00.142Z,100000.88
2017-08-18T03:14:27.771Z,100003.88
2017-08-18T03:16:55.400Z,100006.36
2017-08-18T03:19:23.091Z,100008.94
2017-08-18T03:21:50.698Z,100010.48
2017-08-18T03:24:18.318Z,100009.00
2017-08-18T03:26:45.996Z,100015.92
2017-08-18T03:29:13.620Z,100014.91
2017-08-18T03:31:41.246Z,100020.13
2017-08-18T03:34:08.945Z,100026.19
2017-08-18T03:36:36.573Z,100022.75
2017-08-18T03:39:04.265Z,100026.42
2017-08-18T03:41:31.938Z,100025.78
2017-08-18T03:43:59.552Z,100022.54
2017-08-18T03:46:27.141Z,100030.81
2017-08-18T03:48:54.872Z,100030.54
2017-08-18T03:51:22.529Z,100029.24
2017-08-18T03:53:50.155Z,100038.80
2017-08-18T03:56:17.830Z,100038.27
2017-08-18T03:58:45.447Z,100035.41
2017-08-18T04:01:13.062Z,100036.55
2017-08-18T04:03:40.971Z,100029.56
2017-08-18T04:06:08.839Z,100030.02
2017-08-18T04:08:36.485Z,100035.03
2017-08-18T04:11:04.158Z,100037.85
2017-08-18T04:13:31.784Z,100038.36
2017-08-18T04:15:59.395Z,100041.92
2017-08-18T04:18:27.089Z,100045.77
2017-08-18T04:20:54.761Z,100040.64
2017-08-18T04:23:22.378Z,100036.39
2017-08-18T04:25:50.057Z,100049.45
2017-08-18T04:28:17.678Z,100042.86
2017-08-18T04:30:45.312Z,100050.17
2017-08-18T04:33:12.986Z,100054.08
2017-08-18T04:35:40.612Z,100047.39
2017-08-18T04:38:08.236Z,100053.31
2017-08-18T04:40:35.928Z,100054.17
2017-08-18T04:43:03.541Z,100050.90
2017-08-18T04:45:31.158Z,100053.14
2017-08-18T04:47:58.908Z,100056.23
2017-08-18T04:50:26.562Z,100052.92
2017-08-18T04:52:54.178Z,100059.62
2017-08-18T04:55:21.857Z,100057.70
2017-08-18T04:57:49.485Z,100051.50
2017-08-18T05:00:17.103Z,100062.34
2017-08-18T05:02:44.768Z,100063.68
2017-08-18T05:05:12.396Z,100061.45
2017-08-18T05:07:40.008Z,100064.47
2017-08-18T05:10:07.691Z,100062.34
2017-08-18T05:12:35.300Z,100060.36
2017-08-18T05:15:02.924Z,100062.78
2017-08-18T05:17:30.600Z,100058.59
2017-08-18T05:19:58.240Z,100060.14
2017-08-18T05:22:25.874Z,100063.11
2017-08-18T05:24:53.562Z,100063.69
2017-08-18T05:27:21.188Z,100063.81
2017-08-18T05:29:48.819Z,100064.02
2017-08-18T05:32:16.481Z,100057.77
2017-08-18T05:34:44.099Z,100063.53
2017-08-18T05:37:11.719Z,100053.69
2017-08-18T05:39:39.408Z,100055.30
2017-08-18T05:42:07.097Z,100058.88
2017-08-18T05:44:34.715Z,100056.64
2017-08-18T05:47:02.387Z,100056.83
2017-08-18T05:49:30.040Z,100063.56
2017-08-18T05:51:57.659Z,100061.73
2017-08-18T05:54:25.324Z,100063.55
2017-08-18T05:56:52.947Z,100062.89
2017-08-18T05:59:20.561Z,100058.25
2017-08-18T06:01:48.240Z,100063.39
2017-08-18T06:04:15.859Z,100065.84
2017-08-18T06:06:43.464Z,100062.28
2017-08-18T06:09:11.122Z,100057.80
2017-08-18T06:11:38.731Z,100058.63
2017-08-18T06:14:06.338Z,100062.31
2017-08-18T06:16:34.009Z,100062.02
2017-08-18T06:19:01.648Z,100057.48
2017-08-18T06:21:29.255Z,100056.78
2017-08-18T06:23:56.933Z,100062.92
2017-08-18T06:26:24.560Z,100068.97
2017-08-18T06:28:52.174Z,100059.42
2017-08-18T06:31:19.853Z,100065.95
2017-08-18T06:33:47.469Z,100063.06
2017-08-18T06:36:15.068Z,100068.20
2017-08-18T06:38:42.755Z,100069.64
2017-08-18T06:41:10.401Z,100069.02
2017-08-18T06:43:38.020Z,100072.75
2017-08-18T06:46:05.722Z,100071.84
2017-08-18T06:48:33.365Z,100073.72
2017-08-18T06:51:00.997Z,100075.97
2017-08-18T06:53:28.665Z,100077.80
2017-08-18T06:55:56.272Z,100079.64
2017-08-18T06:58:23.891Z,100075.35
2017-08-18T07:00:51.568Z,100080.27
2017-08-18T07:03:19.197Z,100079.70
2017-08-18T07:05:46.821Z,100079.23
2017-08-18T07:08:14.521Z,100078.88
2017-08-18T07:10:42.143Z,100070.44
2017-08-18T07:13:09.779Z,100075.31
2017-08-18T07:15:37.466Z,100073.67
2017-08-18T07:18:05.099Z,100074.30
2017-08-18T07:20:32.758Z,100069.83
2017-08-18T07:23:00.429Z,100073.48
2017-08-18T07:25:28.048Z,100073.67
2017-08-18T07:27:55.672Z,100070.23
2017-08-18T07:30:23.351Z,100062.75
2017-08-18T07:32:50.995Z,100064.68
2017-08-18T07:35:18.624Z,100059.30
2017-08-18T07:37:46.300Z,100061.04
2017-08-18T07:40:13.912Z,100055.56
2017-08-18T07:42:41.533Z,100063.02
2017-08-18T07:45:09.238Z,100054.64
2017-08-18T07:47:36.855Z,100058.20
2017-08-18T07:50:04.487Z,100050.85
2017-08-18T07:52:32.194Z,100048.92
2017-08-18T07:54:59.797Z,100040.84
2017-08-18T07:57:27.414Z,100043.56
2017-08-18T07:59:55.074Z,100044.63
2017-08-18T08:02:22.679Z,100052.02
2017-08-18T08:04:50.304Z,100050.97
2017-08-18T08:07:17.970Z,100050.48
2017-08-18T08:09:45.631Z,100046.11
2017-08-18T08:12:13.273Z,100045.92
2017-08-18T08:14:40.953Z,100047.52
2017-08-18T08:17:08.583Z,100046.20
2017-08-18T08:19:36.202Z,100046.28
2017-08-18T08:22:03.875Z,100041.45
2017-08-18T08:24:31.504Z,100042.27
2017-08-18T08:26:59.101Z,100044.30
2017-08-18T08:29:26.812Z,100045.27
2017-08-18T08:31:54.436Z,100031.05
2017-08-18T08:34:22.032Z,100031.45
2017-08-18T08:36:49.712Z,100027.28
2017-08-18T08:39:17.528Z,100025.75
2017-08-18T08:41:45.133Z,100027.41
2017-08-18T08:44:12.796Z,100022.45
2017-08-18T08:46:40.423Z,100024.12
2017-08-18T08:49:08.052Z,100022.27
2017-08-18T08:51:35.729Z,100016.45
2017-08-18T08:54:03.337Z,100012.02
2017-08-18T08:56:30.956Z,100017.17
2017-08-18T08:58:58.650Z,100015.01
2017-08-18T09:01:26.269Z,100012.11
2017-08-18T09:03:53.873Z,100015.73
2017-08-18T09:06:21.532Z,100016.16
2017-08-18T09:08:49.156Z,100017.31
2017-08-18T09:11:16.791Z,100012.84
2017-08-18T09:13:44.461Z,100009.30
2017-08-18T09:16:12.094Z,100011.73
2017-08-18T09:18:39.719Z,100013.66
2017-08-18T09:21:07.395Z,100012.26
2017-08-18T09:23:35.023Z,100011.41
2017-08-18T09:26:02.638Z,100012.50
2017-08-18T09:28:30.317Z,100012.25
2017-08-18T09:30:57.921Z,100012.27
2017-08-18T09:33:25.548Z,100002.69
2017-08-18T09:35:53.264Z,100005.66
2017-08-18T09:38:20.896Z,100003.66
2017-08-18T09:40:48.520Z,99999.36
2017-08-18T09:43:16.206Z,100003.05
2017-08-18T09:45:43.820Z,99999.70
2017-08-18T09:51:23.944Z,99995.16
2017-08-18T09:57:04.921Z,99987.45
2017-08-18T09:59:32.588Z,99986.78
2017-08-18T10:02:00.459Z,99973.92
2017-08-18T10:04:28.065Z,99973.78
2017-08-18T10:06:55.712Z,99980.54
2017-08-18T10:09:23.320Z,99977.05
2017-08-18T10:11:50.929Z,99969.97
2017-08-18T10:14:18.585Z,99966.50
2017-08-18T10:16:46.204Z,99973.38
2017-08-18T10:19:13.806Z,99966.38
2017-08-18T10:21:41.510Z,99964.58
2017-08-18T10:24:09.151Z,99959.70
2017-08-18T10:26:36.767Z,99963.56
2017-08-18T10:29:04.461Z,99965.92
2017-08-18T10:31:32.080Z,99958.15
2017-08-18T10:33:59.696Z,99971.94
2017-08-18T10:36:27.359Z,99965.31
2017-08-18T10:38:54.962Z,99957.85
2017-08-18T10:41:22.574Z,99966.70
2017-08-18T10:43:50.238Z,99953.55
2017-08-18T10:46:17.842Z,99953.70
2017-08-18T10:48:45.549Z,99949.00
2017-08-18T10:51:13.216Z,99953.92
2017-08-18T10:53:40.828Z,99949.68
2017-08-18T10:56:08.495Z,99945.72
2017-08-18T10:58:36.145Z,99946.21
2017-08-18T11:01:03.799Z,99931.58
2017-08-18T11:03:31.419Z,99927.92
2017-08-18T11:05:59.097Z,99935.41
2017-08-18T11:08:26.706Z,99928.88
2017-08-18T11:10:54.316Z,99926.58
2017-08-18T11:13:22.014Z,99921.80
2017-08-18T11:15:49.656Z,99927.28
2017-08-18T11:18:17.275Z,99921.66
2017-08-18T11:20:44.961Z,99929.58
2017-08-18T11:23:12.580Z,99924.87
2017-08-18T11:25:40.277Z,99923.66
2017-08-18T11:28:07.943Z,99924.83
2017-08-18T11:30:35.554Z,99914.16
2017-08-18T11:33:03.166Z,99921.09
2017-08-18T11:35:30.846Z,99913.15
2017-08-18T11:37:58.463Z,99903.32
2017-08-18T11:40:26.092Z,99903.84
2017-08-18T11:42:53.793Z,99902.67
2017-08-18T11:45:21.392Z,99900.13
2017-08-18T11:47:49.212Z,99892.89
2017-08-18T11:50:16.872Z,99892.53
2017-08-18T11:52:44.466Z,99883.85
2017-08-18T11:55:12.086Z,99890.41
2017-08-18T11:57:39.764Z,99882.62
2017-08-18T12:00:07.405Z,99884.47
2017-08-18T12:02:35.024Z,99872.40
2017-08-18T12:05:02.707Z,99865.16
2017-08-18T12:07:30.315Z,99868.53
2017-08-18T12:09:57.914Z,99872.91
2017-08-18T12:12:25.557Z,99862.39
2017-08-18T12:14:53.197Z,99866.42
2017-08-18T12:17:20.815Z,99853.81
2017-08-18T12:19:48.491Z,99856.61
2017-08-18T12:22:16.093Z,99857.86
2017-08-18T12:24:43.708Z,99853.58
2017-08-18T12:27:11.388Z,99846.45
2017-08-18T12:29:39.008Z,99844.66
2017-08-18T12:32:06.610Z,99855.44
2017-08-18T12:34:34.310Z,99839.77
2017-08-18T12:37:01.900Z,99835.59
2017-08-18T12:39:29.501Z,99838.27
2017-08-18T12:41:57.272Z,99832.62
2017-08-18T12:44:24.880Z,99834.42
2017-08-18T12:46:52.487Z,99829.74
2017-08-18T12:49:20.156Z,99828.07
2017-08-18T12:51:47.780Z,99830.40
2017-08-18T12:54:15.394Z,99838.11
2017-08-18T12:56:43.073Z,99829.88
2017-08-18T12:59:10.664Z,99832.48
2017-08-18T13:01:38.262Z,99830.58
2017-08-18T13:04:05.940Z,99839.73
2017-08-18T13:06:33.562Z,99837.22
2017-08-18T13:09:01.183Z,99836.98
2017-08-18T13:11:28.847Z,99833.21
2017-08-18T13:13:56.466Z,99826.17
2017-08-18T13:16:24.080Z,99829.92
2017-08-18T13:18:51.741Z,99836.50
2017-08-18T13:21:19.401Z,99828.18
2017-08-18T13:23:47.034Z,99832.75
2017-08-18T13:26:14.971Z,99823.80
2017-08-18T13:28:42.637Z,99823.86
2017-08-18T13:31:10.234Z,99816.83
2017-08-18T13:33:37.915Z,99817.20
2017-08-18T13:36:05.516Z,99821.55
2017-08-18T13:38:33.128Z,99814.06
2017-08-18T13:41:00.789Z,99816.55
2017-08-18T13:43:28.419Z,99822.45
2017-08-18T13:45:56.035Z,99823.00
2017-08-18T13:48:23.709Z,99829.48
2017-08-18T13:50:51.320Z,99817.55
2017-08-18T13:53:18.944Z,99823.02
2017-08-18T13:55:46.613Z,99815.30
2017-08-18T13:58:14.215Z,99812.46
2017-08-18T14:00:41.822Z,99810.52
2017-08-18T14:03:09.485Z,99801.42
2017-08-18T14:05:37.104Z,99803.52
2017-08-18T14:08:04.708Z,99804.02
2017-08-18T14:10:32.420Z,99808.42
2017-08-18T14:13:00.170Z,99807.89
2017-08-18T14:15:27.975Z,99802.03
2017-08-18T14:17:55.633Z,99795.98
2017-08-18T14:20:23.240Z,99814.53
2017-08-18T14:22:50.904Z,99806.58
2017-08-18T14:25:24.148Z,99796.91
2017-08-18T14:27:51.781Z,99801.25
2017-08-18T14:30:19.448Z,99803.17
2017-08-18T14:32:47.104Z,99796.91
2017-08-18T14:35:14.707Z,99793.84
2017-08-18T14:37:42.328Z,99789.70
2017-08-18T14:40:09.989Z,99795.16
2017-08-18T14:42:37.608Z,99787.53
2017-08-18T14:45:05.312Z,99781.94
2017-08-18T14:47:32.958Z,99783.78
2017-08-18T14:50:00.554Z,99783.03
2017-08-18T14:52:28.218Z,99778.30
2017-08-18T14:54:55.899Z,99779.38
2017-08-18T14:57:23.536Z,99775.02
2017-08-18T14:59:51.143Z,99777.91
2017-08-18T15:02:18.807Z,99772.47
2017-08-18T15:04:46.412Z,99771.73
2017-08-18T15:07:14.024Z,99767.98
2017-08-18T15:09:41.696Z,99765.74
2017-08-18T15:12:09.297Z,99754.52
2017-08-18T15:14:36.894Z,99758.81
2017-08-18T15:17:04.556Z,99774.70
2017-08-18T15:19:32.172Z,99765.27
2017-08-18T15:21:59.784Z,99760.62
2017-08-18T15:24:27.457Z,99761.48
2017-08-18T15:26:55.071Z,99765.63
2017-08-18T15:29:22.689Z,99764.63
2017-08-18T15:31:50.399Z,99768.51
2017-08-18T15:34:18.001Z,99771.18
2017-08-18T15:36:45.598Z,99773.23
2017-08-18T15:39:13.274Z,99771.16
2017-08-18T15:41:40.895Z,99777.06
2017-08-18T15:44:08.490Z,99778.11
2017-08-18T15:46:36.161Z,99769.00
2017-08-18T15:49:03.812Z,99776.39
2017-08-18T15:51:31.431Z,99778.13
2017-08-18T15:53:59.097Z,99777.10
2017-08-18T15:56:26.701Z,99772.50
2017-08-18T15:58:54.420Z,99778.56
2017-08-18T16:01:22.069Z,99778.30
2017-08-18T16:03:49.658Z,99778.75
2017-08-18T16:06:17.267Z,99778.48
2017-08-18T16:08:44.913Z,99776.86
2017-08-18T16:11:12.546Z,99777.97
2017-08-18T16:13:40.144Z,99782.06
2017-08-18T16:16:07.788Z,99779.22
2017-08-18T16:18:35.391Z,99785.20
2017-08-18T16:21:02.980Z,99785.56
2017-08-18T16:23:30.631Z,99785.47
2017-08-18T16:25:58.205Z,99785.91
2017-08-18T16:28:25.812Z,99787.13
2017-08-18T16:30:53.455Z,99788.43
2017-08-18T16:33:21.060Z,99789.92
2017-08-18T16:35:48.678Z,99790.26
2017-08-18T16:38:16.398Z,99785.85
2017-08-18T16:40:44.002Z,99790.54
2017-08-18T16:43:11.663Z,99790.85
2017-08-18T16:45:39.356Z,99795.59
2017-08-18T16:48:06.974Z,99790.19
2017-08-18T16:50:34.578Z,99795.41
2017-08-18T16:53:02.231Z,99794.25
2017-08-18T16:55:29.842Z,99793.28
2017-08-18T16:57:57.464Z,99795.80
2017-08-18T17:00:25.160Z,99801.66
2017-08-18T17:02:52.767Z,99801.08
2017-08-18T17:05:20.364Z,99801.55
2017-08-18T17:07:48.067Z,99792.58
2017-08-18T17:10:15.726Z,99799.30
2017-08-18T17:12:43.345Z,99797.42
2017-08-18T17:15:11.043Z,99804.16
2017-08-18T17:17:38.655Z,99807.41
2017-08-18T17:20:06.272Z,99802.72
2017-08-18T17:22:33.958Z,99808.52
2017-08-18T17:25:02.093Z,99809.31
2017-08-18T17:27:29.794Z,99814.12
2017-08-18T17:29:57.450Z,99816.92
2017-08-18T17:32:25.044Z,99819.03
2017-08-18T17:34:52.708Z,99822.23
2017-08-18T17:37:20.356Z,99828.93
2017-08-18T17:39:47.947Z,99831.21
2017-08-18T17:42:15.575Z,99839.27
2017-08-18T17:44:43.224Z,99837.93
2017-08-18T17:47:10.823Z,99843.85
2017-08-18T17:49:38.536Z,99844.55
2017-08-18T17:52:06.191Z,99846.47
2017-08-18T17:54:33.818Z,99851.22
2017-08-18T17:57:01.441Z,99854.01
2017-08-18T17:59:29.093Z,99861.23
2017-08-18T18:01:56.729Z,99867.83
2017-08-18T18:04:24.373Z,99866.47
2017-08-18T18:06:52.096Z,99862.63
2017-08-18T18:09:19.742Z,99871.98
2017-08-18T18:11:47.349Z,99872.73
2017-08-18T18:14:15.016Z,99873.11
2017-08-18T18:16:42.628Z,99875.72
2017-08-18T18:19:10.244Z,99882.03
2017-08-18T18:21:37.908Z,99883.02
2017-08-18T18:24:05.546Z,99882.96
2017-08-18T18:26:33.128Z,99884.77
2017-08-18T18:29:00.785Z,99888.89
2017-08-18T18:31:28.384Z,99885.71
2017-08-18T18:33:55.993Z,99898.78
2017-08-18T18:36:23.657Z,99891.21
2017-08-18T18:38:51.274Z,99896.86
2017-08-18T18:41:18.867Z,99895.34
2017-08-18T18:43:46.529Z,99903.75
2017-08-18T18:46:14.158Z,99899.83
2017-08-18T18:48:41.757Z,99901.78
2017-08-18T18:51:09.458Z,99907.73
2017-08-18T18:53:37.062Z,99904.97
2017-08-18T18:56:04.803Z,99905.55
2017-08-18T18:58:32.452Z,99909.11
2017-08-18T19:01:00.083Z,99909.58
2017-08-18T19:03:27.700Z,99909.53
2017-08-18T19:05:55.358Z,99915.70
2017-08-18T19:08:23.112Z,99914.48
2017-08-18T19:10:50.721Z,99914.08
2017-08-18T19:13:18.400Z,99915.16
2017-08-18T19:15:45.999Z,99915.50
2017-08-18T19:18:13.631Z,99917.12
2017-08-18T19:20:41.294Z,99921.78
2017-08-18T19:23:08.909Z,99917.32
2017-08-18T19:25:36.513Z,99916.27
2017-08-18T19:28:04.186Z,99918.88
2017-08-18T19:30:31.792Z,99919.89
2017-08-18T19:32:59.402Z,99917.92
2017-08-18T19:35:27.061Z,99921.15
2017-08-18T19:37:54.713Z,99922.83
2017-08-18T19:40:22.321Z,99921.13
2017-08-18T19:42:50.021Z,99925.86
2017-08-18T19:45:17.632Z,99927.88
2017-08-18T19:47:45.243Z,99927.61
2017-08-18T19:50:12.924Z,99930.22
2017-08-18T19:52:40.533Z,99930.16
2017-08-18T19:55:08.163Z,99931.79
2017-08-18T19:57:35.829Z,99931.00
2017-08-18T20:00:03.435Z,99931.47
2017-08-18T20:02:31.047Z,99931.87
2017-08-18T20:04:58.723Z,99928.19
2017-08-18T20:07:26.335Z,99929.06
2017-08-18T20:09:53.944Z,99925.49
2017-08-18T20:12:21.645Z,99926.97
2017-08-18T20:14:49.264Z,99934.28
2017-08-18T20:17:16.876Z,99929.70
2017-08-18T20:19:44.527Z,99925.66
2017-08-18T20:22:12.219Z,99934.59
2017-08-18T20:24:39.877Z,99932.70
2017-08-18T20:27:08.545Z,99933.97
2017-08-18T20:29:36.209Z,99938.84
2017-08-18T20:32:03.803Z,99932.20
2017-08-18T20:34:31.474Z,99927.16
2017-08-18T20:36:59.061Z,99937.14
2017-08-18T20:39:26.710Z,99942.67
2017-08-18T20:41:54.354Z,99936.00
2017-08-18T20:44:21.948Z,99941.98
2017-08-18T20:46:49.557Z,99943.13
2017-08-18T20:49:17.236Z,99951.25
2017-08-18T20:51:44.845Z,99949.41
2017-08-18T20:54:12.464Z,99952.48
2017-08-18T20:56:40.128Z,99954.15
2017-08-18T20:59:07.759Z,99952.01
2017-08-18T21:01:35.366Z,99945.76
2017-08-18T21:04:03.072Z,99949.72
2017-08-18T21:06:30.699Z,99952.31
2017-08-18T21:08:58.317Z,99948.75
2017-08-18T21:11:25.973Z,99953.27
2017-08-18T21:13:53.584Z,99951.75
2017-08-18T21:16:21.219Z,99946.87
2017-08-18T21:18:48.903Z,99953.28
2017-08-18T21:21:16.524Z,99950.55
2017-08-18T21:23:44.136Z,99953.27
2017-08-18T21:26:11.802Z,99958.43
2017-08-18T21:28:39.411Z,99954.50
2017-08-18T21:31:07.291Z,99956.93
2017-08-18T21:33:34.962Z,99956.77
2017-08-18T21:36:02.577Z,99957.83
2017-08-18T21:38:30.208Z,99959.20
2017-08-18T21:40:57.889Z,99963.81
2017-08-18T21:43:25.481Z,99954.81
2017-08-18T21:45:53.087Z,99955.23
2017-08-18T21:48:20.729Z,99962.28
2017-08-18T21:50:48.351Z,99965.41
2017-08-18T21:53:15.969Z,99957.80
2017-08-18T21:55:43.625Z,99955.47
2017-08-18T21:58:11.235Z,99956.66
2017-08-18T22:00:38.853Z,99959.11
2017-08-18T22:03:06.513Z,99953.28
2017-08-18T22:05:34.119Z,99951.19
2017-08-18T22:08:01.736Z,99939.27
2017-08-18T22:10:29.383Z,99950.00
2017-08-18T22:12:56.982Z,99949.02
2017-08-18T22:15:24.603Z,99951.98
2017-08-18T22:17:52.265Z,99949.41
2017-08-18T22:20:19.869Z,99947.31
2017-08-18T22:22:47.476Z,99947.19
2017-08-18T22:25:15.142Z,99946.77
2017-08-18T22:27:42.900Z,99944.51
2017-08-18T22:30:10.502Z,99945.29
2017-08-18T22:32:38.210Z,99949.73
2017-08-18T22:35:05.822Z,99945.09
2017-08-18T22:37:33.423Z,99952.00
2017-08-18T22:40:01.081Z,99952.41
2017-08-18T22:42:28.694Z,99950.38
2017-08-18T22:44:56.295Z,99950.52
2017-08-18T22:47:23.969Z,99944.17
2017-08-18T22:49:51.566Z,99944.47
2017-08-18T22:52:19.170Z,99940.13
2017-08-18T22:54:46.971Z,99943.88
2017-08-18T22:57:14.569Z,99942.60
2017-08-18T22:59:42.169Z,99938.18
2017-08-18T23:02:09.817Z,99939.81
2017-08-18T23:04:37.444Z,99940.99
2017-08-18T23:07:05.069Z,99937.17
2017-08-18T23:09:32.743Z,99935.31
2017-08-18T23:12:00.354Z,99940.22
2017-08-18T23:14:27.943Z,99938.55
2017-08-18T23:16:55.605Z,99934.16
2017-08-18T23:19:23.230Z,99934.38
2017-08-18T23:21:50.831Z,99937.36
2017-08-18T23:24:18.495Z,99938.72
2017-08-18T23:26:46.087Z,99937.13
2017-08-18T23:29:13.689Z,99942.52
2017-08-18T23:31:41.361Z,99945.72
2017-08-18T23:34:08.997Z,99943.41
2017-08-18T23:36:36.582Z,99950.44
2017-08-18T23:39:04.315Z,99944.94
2017-08-18T23:41:31.921Z,99946.73
2017-08-18T23:43:59.533Z,99941.30
2017-08-18T23:46:27.185Z,99946.52
2017-08-18T23:48:54.801Z,99950.09
2017-08-18T23:51:22.415Z,99945.66
2017-08-18T23:53:50.108Z,99945.64
2017-08-18T23:56:17.717Z,99947.20
2017-08-18T23:58:45.327Z,99941.59
